Terminal Aerodrome Forecast
Issued by NWS

Home | Current Version | Previous Version | Text Only | Print | Product List | Glossary Off
Versions: 1 2 3 4 5 6 7 8 9 10 11 12 13 14 15 16 17 18

211
FTUS43 KMPX 241120
TAFAXN
TAF
KAXN 241120Z 2412/2512 15008KT P6SM SCT090 BKN200
     FM241800 19018G26KT P6SM SCT110
     FM242000 20014G23KT P6SM BKN080 PROB30 2421/2501 -TSRA BKN050CB
     FM250100 18009KT P6SM BKN110=

USA.gov is the U.S. government's official web portal to all federal, state and local government web resources and services.